sensor_id;sensor_type;location;lat;lon;timestamp;temperature;humidity
4811;DHT22;2419;51.276;6.472;2023-02-16T00:01:43;4.30;99.90
4811;DHT22;2419;51.276;6.472;2023-02-16T00:04:18;4.30;99.90
4811;DHT22;2419;51.276;6.472;2023-02-16T00:06:47;4.10;99.90
4811;DHT22;2419;51.276;6.472;2023-02-16T00:09:16;4.10;99.90
4811;DHT22;2419;51.276;6.472;2023-02-16T00:11:45;4.20;99.90
4811;DHT22;2419;51.276;6.472;2023-02-16T00:14:34;4.10;99.90
4811;DHT22;2419;51.276;6.472;2023-02-16T00:17:03;3.90;99.90
4811;DHT22;2419;51.276;6.472;2023-02-16T00:19:34;3.90;99.90
4811;DHT22;2419;51.276;6.472;2023-02-16T00:22:04;3.80;99.90
4811;DHT22;2419;51.276;6.472;2023-02-16T00:24:32;3.70;99.90
4811;DHT22;2419;51.276;6.472;2023-02-16T00:27:00;3.60;99.90
4811;DHT22;2419;51.276;6.472;2023-02-16T00:29:30;3.50;99.90
4811;DHT22;2419;51.276;6.472;2023-02-16T00:32:03;3.70;99.90
4811;DHT22;2419;51.276;6.472;2023-02-16T00:34:33;3.80;99.90
4811;DHT22;2419;51.276;6.472;2023-02-16T00:37:04;3.90;99.90
4811;DHT22;2419;51.276;6.472;2023-02-16T00:39:33;3.90;99.90
4811;DHT22;2419;51.276;6.472;2023-02-16T00:42:03;3.80;99.90
4811;DHT22;2419;51.276;6.472;2023-02-16T00:44:35;3.80;99.90
4811;DHT22;2419;51.276;6.472;2023-02-16T00:47:14;3.80;99.90
4811;DHT22;2419;51.276;6.472;2023-02-16T00:49:44;3.80;99.90
4811;DHT22;2419;51.276;6.472;2023-02-16T00:52:31;3.80;99.90
4811;DHT22;2419;51.276;6.472;2023-02-16T00:55:01;3.70;99.90
4811;DHT22;2419;51.276;6.472;2023-02-16T00:57:33;3.70;99.90
4811;DHT22;2419;51.276;6.472;2023-02-16T01:00:06;3.70;99.90
4811;DHT22;2419;51.276;6.472;2023-02-16T01:02:36;3.70;99.90
4811;DHT22;2419;51.276;6.472;2023-02-16T01:05:05;3.60;99.90
4811;DHT22;2419;51.276;6.472;2023-02-16T01:07:33;3.60;99.90
4811;DHT22;2419;51.276;6.472;2023-02-16T01:10:19;3.60;99.90
4811;DHT22;2419;51.276;6.472;2023-02-16T01:13:05;3.60;99.90
4811;DHT22;2419;51.276;6.472;2023-02-16T01:15:35;3.60;99.90
4811;DHT22;2419;51.276;6.472;2023-02-16T01:18:05;3.50;99.90
4811;DHT22;2419;51.276;6.472;2023-02-16T01:20:33;3.50;99.90
4811;DHT22;2419;51.276;6.472;2023-02-16T01:23:02;3.30;99.90
4811;DHT22;2419;51.276;6.472;2023-02-16T01:25:31;3.30;99.90
4811;DHT22;2419;51.276;6.472;2023-02-16T01:27:59;3.20;99.90
4811;DHT22;2419;51.276;6.472;2023-02-16T01:30:27;3.20;99.90
4811;DHT22;2419;51.276;6.472;2023-02-16T01:32:56;3.00;99.90
4811;DHT22;2419;51.276;6.472;2023-02-16T01:35:30;3.00;99.90
4811;DHT22;2419;51.276;6.472;2023-02-16T01:37:59;2.80;99.90
4811;DHT22;2419;51.276;6.472;2023-02-16T01:40:36;2.80;99.90
4811;DHT22;2419;51.276;6.472;2023-02-16T01:43:13;2.80;99.90
4811;DHT22;2419;51.276;6.472;2023-02-16T01:45:50;2.80;99.90
4811;DHT22;2419;51.276;6.472;2023-02-16T01:48:25;2.70;99.90
4811;DHT22;2419;51.276;6.472;2023-02-16T01:51:01;2.60;99.90
4811;DHT22;2419;51.276;6.472;2023-02-16T01:53:36;2.70;99.90
4811;DHT22;2419;51.276;6.472;2023-02-16T01:56:16;2.80;99.90
4811;DHT22;2419;51.276;6.472;2023-02-16T01:58:49;2.70;99.90
4811;DHT22;2419;51.276;6.472;2023-02-16T02:01:43;2.70;99.90
4811;DHT22;2419;51.276;6.472;2023-02-16T02:04:34;2.60;99.90
4811;DHT22;2419;51.276;6.472;2023-02-16T02:07:26;2.80;99.90
4811;DHT22;2419;51.276;6.472;2023-02-16T02:10:00;2.80;99.90
4811;DHT22;2419;51.276;6.472;2023-02-16T02:12:34;2.70;99.90
4811;DHT22;2419;51.276;6.472;2023-02-16T02:15:06;2.80;99.90
4811;DHT22;2419;51.276;6.472;2023-02-16T02:17:35;2.60;99.90
4811;DHT22;2419;51.276;6.472;2023-02-16T02:20:09;2.60;99.90
4811;DHT22;2419;51.276;6.472;2023-02-16T02:26:42;2.60;99.90
4811;DHT22;2419;51.276;6.472;2023-02-16T02:29:30;2.70;99.90
4811;DHT22;2419;51.276;6.472;2023-02-16T02:32:11;2.80;99.90
4811;DHT22;2419;51.276;6.472;2023-02-16T02:34:58;2.70;99.90
4811;DHT22;2419;51.276;6.472;2023-02-16T02:37:43;2.70;99.90
4811;DHT22;2419;51.276;6.472;2023-02-16T02:40:18;2.70;99.90
4811;DHT22;2419;51.276;6.472;2023-02-16T02:42:58;2.60;99.90
4811;DHT22;2419;51.276;6.472;2023-02-16T02:45:33;2.60;99.90
4811;DHT22;2419;51.276;6.472;2023-02-16T02:48:03;2.70;99.90
4811;DHT22;2419;51.276;6.472;2023-02-16T02:50:38;2.40;99.90
4811;DHT22;2419;51.276;6.472;2023-02-16T02:53:12;2.50;99.90
4811;DHT22;2419;51.276;6.472;2023-02-16T02:55:44;2.50;99.90
4811;DHT22;2419;51.276;6.472;2023-02-16T02:58:34;2.40;99.90
4811;DHT22;2419;51.276;6.472;2023-02-16T03:01:35;2.40;99.90
4811;DHT22;2419;51.276;6.472;2023-02-16T03:04:05;2.40;99.90
4811;DHT22;2419;51.276;6.472;2023-02-16T03:06:37;2.50;99.90
4811;DHT22;2419;51.276;6.472;2023-02-16T03:09:10;2.40;99.90
4811;DHT22;2419;51.276;6.472;2023-02-16T03:11:40;2.40;99.90
4811;DHT22;2419;51.276;6.472;2023-02-16T03:14:31;2.70;99.90
4811;DHT22;2419;51.276;6.472;2023-02-16T03:17:03;2.80;99.90
4811;DHT22;2419;51.276;6.472;2023-02-16T03:19:50;2.80;99.90
4811;DHT22;2419;51.276;6.472;2023-02-16T03:22:36;2.80;99.90
4811;DHT22;2419;51.276;6.472;2023-02-16T03:25:29;2.80;99.90
4811;DHT22;2419;51.276;6.472;2023-02-16T03:28:17;2.80;99.90
4811;DHT22;2419;51.276;6.472;2023-02-16T03:31:07;2.60;99.90
4811;DHT22;2419;51.276;6.472;2023-02-16T03:33:37;2.50;99.90
4811;DHT22;2419;51.276;6.472;2023-02-16T03:36:06;2.40;99.90
4811;DHT22;2419;51.276;6.472;2023-02-16T03:38:35;2.30;99.90
4811;DHT22;2419;51.276;6.472;2023-02-16T03:41:03;2.20;99.90
4811;DHT22;2419;51.276;6.472;2023-02-16T03:43:32;2.20;99.90
4811;DHT22;2419;51.276;6.472;2023-02-16T03:46:00;2.40;99.90
4811;DHT22;2419;51.276;6.472;2023-02-16T03:48:30;2.40;99.90
4811;DHT22;2419;51.276;6.472;2023-02-16T03:50:58;2.30;99.90
4811;DHT22;2419;51.276;6.472;2023-02-16T03:53:26;2.30;99.90
4811;DHT22;2419;51.276;6.472;2023-02-16T03:55:54;2.30;99.90
4811;DHT22;2419;51.276;6.472;2023-02-16T03:58:23;2.30;99.90
4811;DHT22;2419;51.276;6.472;2023-02-16T04:00:52;2.00;99.90
4811;DHT22;2419;51.276;6.472;2023-02-16T04:03:20;2.00;99.90
4811;DHT22;2419;51.276;6.472;2023-02-16T04:05:49;2.10;99.90
4811;DHT22;2419;51.276;6.472;2023-02-16T04:08:17;2.20;99.90
4811;DHT22;2419;51.276;6.472;2023-02-16T04:10:45;2.10;99.90
4811;DHT22;2419;51.276;6.472;2023-02-16T04:13:13;2.00;99.90
4811;DHT22;2419;51.276;6.472;2023-02-16T04:15:40;1.90;99.90
4811;DHT22;2419;51.276;6.472;2023-02-16T04:18:08;1.90;99.90
4811;DHT22;2419;51.276;6.472;2023-02-16T04:20:37;1.90;99.90
4811;DHT22;2419;51.276;6.472;2023-02-16T04:23:06;1.90;99.90
4811;DHT22;2419;51.276;6.472;2023-02-16T04:25:34;1.90;99.90
4811;DHT22;2419;51.276;6.472;2023-02-16T04:28:02;1.90;99.90
4811;DHT22;2419;51.276;6.472;2023-02-16T04:30:30;1.90;99.90
4811;DHT22;2419;51.276;6.472;2023-02-16T04:32:59;1.90;99.90
4811;DHT22;2419;51.276;6.472;2023-02-16T04:35:27;1.90;99.90
4811;DHT22;2419;51.276;6.472;2023-02-16T04:37:55;2.00;99.90
4811;DHT22;2419;51.276;6.472;2023-02-16T04:40:24;2.10;99.90
4811;DHT22;2419;51.276;6.472;2023-02-16T04:42:52;2.30;99.90
4811;DHT22;2419;51.276;6.472;2023-02-16T04:45:20;2.30;99.90
4811;DHT22;2419;51.276;6.472;2023-02-16T04:47:48;2.30;99.90
4811;DHT22;2419;51.276;6.472;2023-02-16T04:50:16;2.30;99.90
4811;DHT22;2419;51.276;6.472;2023-02-16T04:52:44;2.20;99.90
4811;DHT22;2419;51.276;6.472;2023-02-16T04:55:12;2.20;99.90
4811;DHT22;2419;51.276;6.472;2023-02-16T04:57:42;2.10;99.90
4811;DHT22;2419;51.276;6.472;2023-02-16T05:00:11;2.10;99.90
4811;DHT22;2419;51.276;6.472;2023-02-16T05:02:39;2.10;99.90
4811;DHT22;2419;51.276;6.472;2023-02-16T05:05:07;2.00;99.90
4811;DHT22;2419;51.276;6.472;2023-02-16T05:07:35;2.00;99.90
4811;DHT22;2419;51.276;6.472;2023-02-16T05:10:05;2.00;99.90
4811;DHT22;2419;51.276;6.472;2023-02-16T05:12:33;2.20;99.90
4811;DHT22;2419;51.276;6.472;2023-02-16T05:15:20;2.20;99.90
4811;DHT22;2419;51.276;6.472;2023-02-16T05:17:48;2.20;99.90
4811;DHT22;2419;51.276;6.472;2023-02-16T05:20:16;2.20;99.90
4811;DHT22;2419;51.276;6.472;2023-02-16T05:22:44;2.20;99.90
4811;DHT22;2419;51.276;6.472;2023-02-16T05:25:12;2.10;99.90
4811;DHT22;2419;51.276;6.472;2023-02-16T05:27:40;2.10;99.90
4811;DHT22;2419;51.276;6.472;2023-02-16T05:30:09;2.10;99.90
4811;DHT22;2419;51.276;6.472;2023-02-16T05:32:39;2.10;99.90
4811;DHT22;2419;51.276;6.472;2023-02-16T05:35:07;2.20;99.90
4811;DHT22;2419;51.276;6.472;2023-02-16T05:37:35;2.40;99.90
4811;DHT22;2419;51.276;6.472;2023-02-16T05:40:04;2.40;99.90
4811;DHT22;2419;51.276;6.472;2023-02-16T05:42:33;2.40;99.90
4811;DHT22;2419;51.276;6.472;2023-02-16T05:45:01;2.40;99.90
4811;DHT22;2419;51.276;6.472;2023-02-16T05:47:29;2.40;99.90
4811;DHT22;2419;51.276;6.472;2023-02-16T05:49:58;2.50;99.90
4811;DHT22;2419;51.276;6.472;2023-02-16T05:52:26;2.50;99.90
4811;DHT22;2419;51.276;6.472;2023-02-16T05:54:54;2.50;99.90
4811;DHT22;2419;51.276;6.472;2023-02-16T05:57:22;2.50;99.90
4811;DHT22;2419;51.276;6.472;2023-02-16T05:59:50;2.60;99.90
4811;DHT22;2419;51.276;6.472;2023-02-16T06:02:18;2.60;99.90
4811;DHT22;2419;51.276;6.472;2023-02-16T06:04:46;2.70;99.90
4811;DHT22;2419;51.276;6.472;2023-02-16T06:07:16;2.70;99.90
4811;DHT22;2419;51.276;6.472;2023-02-16T06:09:44;2.70;99.90
4811;DHT22;2419;51.276;6.472;2023-02-16T06:12:12;2.70;99.90
4811;DHT22;2419;51.276;6.472;2023-02-16T06:14:40;2.70;99.90
4811;DHT22;2419;51.276;6.472;2023-02-16T06:17:08;2.80;99.90
4811;DHT22;2419;51.276;6.472;2023-02-16T06:19:36;2.80;99.90
4811;DHT22;2419;51.276;6.472;2023-02-16T06:22:04;2.80;99.90
4811;DHT22;2419;51.276;6.472;2023-02-16T06:24:34;2.70;99.90
4811;DHT22;2419;51.276;6.472;2023-02-16T06:27:03;2.80;99.90
4811;DHT22;2419;51.276;6.472;2023-02-16T06:29:31;2.90;99.90
4811;DHT22;2419;51.276;6.472;2023-02-16T06:31:59;2.90;99.90
4811;DHT22;2419;51.276;6.472;2023-02-16T06:34:27;2.90;99.90
4811;DHT22;2419;51.276;6.472;2023-02-16T06:36:55;2.80;99.90
4811;DHT22;2419;51.276;6.472;2023-02-16T06:39:23;2.90;99.90
4811;DHT22;2419;51.276;6.472;2023-02-16T06:41:52;2.90;99.90
4811;DHT22;2419;51.276;6.472;2023-02-16T06:44:20;2.90;99.90
4811;DHT22;2419;51.276;6.472;2023-02-16T06:46:48;2.90;99.90
4811;DHT22;2419;51.276;6.472;2023-02-16T06:49:18;2.80;99.90
4811;DHT22;2419;51.276;6.472;2023-02-16T06:51:48;2.80;99.90
4811;DHT22;2419;51.276;6.472;2023-02-16T06:54:16;2.90;99.90
4811;DHT22;2419;51.276;6.472;2023-02-16T06:56:44;3.00;99.90
4811;DHT22;2419;51.276;6.472;2023-02-16T06:59:14;3.10;99.90
4811;DHT22;2419;51.276;6.472;2023-02-16T07:01:42;3.20;99.90
4811;DHT22;2419;51.276;6.472;2023-02-16T07:04:11;3.40;99.90
4811;DHT22;2419;51.276;6.472;2023-02-16T07:06:39;3.50;99.90
4811;DHT22;2419;51.276;6.472;2023-02-16T07:09:08;3.80;99.90
4811;DHT22;2419;51.276;6.472;2023-02-16T07:11:38;3.90;99.90
4811;DHT22;2419;51.276;6.472;2023-02-16T07:14:06;3.70;99.90
4811;DHT22;2419;51.276;6.472;2023-02-16T07:16:36;3.50;99.90
4811;DHT22;2419;51.276;6.472;2023-02-16T07:19:04;3.50;99.90
4811;DHT22;2419;51.276;6.472;2023-02-16T07:21:32;3.40;99.90
4811;DHT22;2419;51.276;6.472;2023-02-16T07:24:00;3.40;99.90
4811;DHT22;2419;51.276;6.472;2023-02-16T07:26:29;3.40;99.90
4811;DHT22;2419;51.276;6.472;2023-02-16T07:28:57;3.40;99.90
4811;DHT22;2419;51.276;6.472;2023-02-16T07:31:25;3.50;99.90
4811;DHT22;2419;51.276;6.472;2023-02-16T07:33:55;3.40;99.90
4811;DHT22;2419;51.276;6.472;2023-02-16T07:36:23;3.50;99.90
4811;DHT22;2419;51.276;6.472;2023-02-16T07:38:51;3.60;99.90
4811;DHT22;2419;51.276;6.472;2023-02-16T07:41:19;3.50;99.90
4811;DHT22;2419;51.276;6.472;2023-02-16T07:43:47;3.60;99.90
4811;DHT22;2419;51.276;6.472;2023-02-16T07:46:16;3.60;99.90
4811;DHT22;2419;51.276;6.472;2023-02-16T07:48:46;3.60;99.90
4811;DHT22;2419;51.276;6.472;2023-02-16T07:51:21;3.70;99.90
4811;DHT22;2419;51.276;6.472;2023-02-16T07:53:49;3.70;99.90
4811;DHT22;2419;51.276;6.472;2023-02-16T07:56:19;3.80;99.90
4811;DHT22;2419;51.276;6.472;2023-02-16T07:58:47;3.80;99.90
4811;DHT22;2419;51.276;6.472;2023-02-16T08:01:15;3.90;99.90
4811;DHT22;2419;51.276;6.472;2023-02-16T08:03:43;4.00;99.90
4811;DHT22;2419;51.276;6.472;2023-02-16T08:06:11;4.10;99.90
4811;DHT22;2419;51.276;6.472;2023-02-16T08:08:41;4.20;99.90
4811;DHT22;2419;51.276;6.472;2023-02-16T08:11:09;4.40;99.90
4811;DHT22;2419;51.276;6.472;2023-02-16T08:13:38;4.50;99.90
4811;DHT22;2419;51.276;6.472;2023-02-16T08:16:07;4.60;99.90
4811;DHT22;2419;51.276;6.472;2023-02-16T08:18:36;5.00;99.90
4811;DHT22;2419;51.276;6.472;2023-02-16T08:21:08;5.40;99.90
4811;DHT22;2419;51.276;6.472;2023-02-16T08:23:41;5.70;99.90
4811;DHT22;2419;51.276;6.472;2023-02-16T08:26:14;6.00;99.90
4811;DHT22;2419;51.276;6.472;2023-02-16T08:28:45;6.10;99.90
4811;DHT22;2419;51.276;6.472;2023-02-16T08:31:17;5.70;99.90
4811;DHT22;2419;51.276;6.472;2023-02-16T08:33:46;5.50;99.90
4811;DHT22;2419;51.276;6.472;2023-02-16T08:36:18;5.60;99.90
4811;DHT22;2419;51.276;6.472;2023-02-16T08:38:48;5.80;99.90
4811;DHT22;2419;51.276;6.472;2023-02-16T08:41:17;6.10;99.90
4811;DHT22;2419;51.276;6.472;2023-02-16T08:43:45;7.00;99.90
4811;DHT22;2419;51.276;6.472;2023-02-16T08:46:14;7.70;99.90
4811;DHT22;2419;51.276;6.472;2023-02-16T08:48:42;6.60;99.90
4811;DHT22;2419;51.276;6.472;2023-02-16T08:51:14;6.00;99.90
4811;DHT22;2419;51.276;6.472;2023-02-16T08:53:43;5.90;99.90
4811;DHT22;2419;51.276;6.472;2023-02-16T08:56:13;5.90;99.90
4811;DHT22;2419;51.276;6.472;2023-02-16T08:58:42;5.90;99.90
4811;DHT22;2419;51.276;6.472;2023-02-16T09:01:11;6.10;99.90
4811;DHT22;2419;51.276;6.472;2023-02-16T09:03:42;6.30;99.90
4811;DHT22;2419;51.276;6.472;2023-02-16T09:06:12;6.80;99.90
4811;DHT22;2419;51.276;6.472;2023-02-16T09:08:41;6.60;99.90
4811;DHT22;2419;51.276;6.472;2023-02-16T09:11:13;6.40;99.90
4811;DHT22;2419;51.276;6.472;2023-02-16T09:13:42;6.40;99.90
4811;DHT22;2419;51.276;6.472;2023-02-16T09:16:11;6.30;99.90
4811;DHT22;2419;51.276;6.472;2023-02-16T09:18:42;6.40;99.90
4811;DHT22;2419;51.276;6.472;2023-02-16T09:21:12;6.30;99.90
4811;DHT22;2419;51.276;6.472;2023-02-16T09:23:43;6.30;99.90
4811;DHT22;2419;51.276;6.472;2023-02-16T09:26:15;6.30;99.90
4811;DHT22;2419;51.276;6.472;2023-02-16T09:28:45;6.30;99.90
4811;DHT22;2419;51.276;6.472;2023-02-16T09:31:16;6.30;99.90
4811;DHT22;2419;51.276;6.472;2023-02-16T09:33:46;6.30;99.90
4811;DHT22;2419;51.276;6.472;2023-02-16T09:36:14;6.30;99.90
4811;DHT22;2419;51.276;6.472;2023-02-16T09:38:41;6.30;99.90
4811;DHT22;2419;51.276;6.472;2023-02-16T09:41:22;6.40;99.90
4811;DHT22;2419;51.276;6.472;2023-02-16T09:43:55;6.30;99.90
4811;DHT22;2419;51.276;6.472;2023-02-16T09:46:25;6.30;99.90
4811;DHT22;2419;51.276;6.472;2023-02-16T09:48:55;6.40;99.90
4811;DHT22;2419;51.276;6.472;2023-02-16T09:51:26;6.40;99.90
4811;DHT22;2419;51.276;6.472;2023-02-16T09:54:11;6.70;99.90
4811;DHT22;2419;51.276;6.472;2023-02-16T09:56:48;6.70;99.90
4811;DHT22;2419;51.276;6.472;2023-02-16T09:59:30;6.50;99.90
4811;DHT22;2419;51.276;6.472;2023-02-16T10:02:19;6.40;99.90
4811;DHT22;2419;51.276;6.472;2023-02-16T10:04:56;6.50;99.90
4811;DHT22;2419;51.276;6.472;2023-02-16T10:07:30;6.50;99.90
4811;DHT22;2419;51.276;6.472;2023-02-16T10:10:00;6.50;99.90
4811;DHT22;2419;51.276;6.472;2023-02-16T10:12:35;6.60;99.90
4811;DHT22;2419;51.276;6.472;2023-02-16T10:15:07;6.60;99.90
4811;DHT22;2419;51.276;6.472;2023-02-16T10:17:44;6.60;99.90
4811;DHT22;2419;51.276;6.472;2023-02-16T10:20:16;6.60;99.90
4811;DHT22;2419;51.276;6.472;2023-02-16T10:22:48;6.70;99.90
4811;DHT22;2419;51.276;6.472;2023-02-16T10:25:22;6.80;99.90
4811;DHT22;2419;51.276;6.472;2023-02-16T10:28:03;6.80;99.90
4811;DHT22;2419;51.276;6.472;2023-02-16T10:30:32;6.90;99.90
4811;DHT22;2419;51.276;6.472;2023-02-16T10:33:05;7.00;99.90
4811;DHT22;2419;51.276;6.472;2023-02-16T10:35:44;7.10;99.90
4811;DHT22;2419;51.276;6.472;2023-02-16T10:38:17;7.20;99.90
4811;DHT22;2419;51.276;6.472;2023-02-16T10:40:52;7.20;99.90
4811;DHT22;2419;51.276;6.472;2023-02-16T10:43:36;7.40;99.90
4811;DHT22;2419;51.276;6.472;2023-02-16T10:46:06;7.50;99.90
4811;DHT22;2419;51.276;6.472;2023-02-16T10:48:36;7.70;99.90
4811;DHT22;2419;51.276;6.472;2023-02-16T10:51:07;7.80;99.90
4811;DHT22;2419;51.276;6.472;2023-02-16T10:53:39;7.90;99.90
4811;DHT22;2419;51.276;6.472;2023-02-16T10:56:28;8.20;99.90
4811;DHT22;2419;51.276;6.472;2023-02-16T10:59:00;8.30;99.90
4811;DHT22;2419;51.276;6.472;2023-02-16T11:01:35;8.40;99.90
4811;DHT22;2419;51.276;6.472;2023-02-16T11:04:06;8.40;99.90
4811;DHT22;2419;51.276;6.472;2023-02-16T11:06:35;8.40;99.90
4811;DHT22;2419;51.276;6.472;2023-02-16T11:09:04;8.50;99.90
4811;DHT22;2419;51.276;6.472;2023-02-16T11:11:35;8.60;99.90
4811;DHT22;2419;51.276;6.472;2023-02-16T11:14:07;8.80;99.90
4811;DHT22;2419;51.276;6.472;2023-02-16T11:16:45;8.90;99.90
4811;DHT22;2419;51.276;6.472;2023-02-16T11:19:20;9.00;99.90
4811;DHT22;2419;51.276;6.472;2023-02-16T11:21:51;9.00;99.90
4811;DHT22;2419;51.276;6.472;2023-02-16T11:24:25;9.20;99.90
4811;DHT22;2419;51.276;6.472;2023-02-16T11:27:03;9.40;99.90
4811;DHT22;2419;51.276;6.472;2023-02-16T11:29:33;9.30;99.90
4811;DHT22;2419;51.276;6.472;2023-02-16T11:32:06;9.40;99.90
4811;DHT22;2419;51.276;6.472;2023-02-16T11:34:35;9.50;99.90
4811;DHT22;2419;51.276;6.472;2023-02-16T11:37:13;9.50;99.90
4811;DHT22;2419;51.276;6.472;2023-02-16T11:39:48;9.50;99.90
4811;DHT22;2419;51.276;6.472;2023-02-16T11:42:23;9.50;99.90
4811;DHT22;2419;51.276;6.472;2023-02-16T11:44:56;9.60;99.90
4811;DHT22;2419;51.276;6.472;2023-02-16T11:47:28;9.50;99.90
4811;DHT22;2419;51.276;6.472;2023-02-16T11:50:16;9.70;99.90
4811;DHT22;2419;51.276;6.472;2023-02-16T11:52:46;9.80;99.90
4811;DHT22;2419;51.276;6.472;2023-02-16T11:55:22;9.80;99.90
4811;DHT22;2419;51.276;6.472;2023-02-16T11:57:53;9.80;99.90
4811;DHT22;2419;51.276;6.472;2023-02-16T12:00:24;9.90;99.90
4811;DHT22;2419;51.276;6.472;2023-02-16T12:05:59;9.80;99.90
4811;DHT22;2419;51.276;6.472;2023-02-16T12:08:42;9.80;99.90
4811;DHT22;2419;51.276;6.472;2023-02-16T12:11:26;9.90;99.90
4811;DHT22;2419;51.276;6.472;2023-02-16T12:14:09;9.90;99.90
4811;DHT22;2419;51.276;6.472;2023-02-16T12:16:46;9.90;99.90
4811;DHT22;2419;51.276;6.472;2023-02-16T12:19:28;9.80;99.90
4811;DHT22;2419;51.276;6.472;2023-02-16T12:22:04;9.70;99.90
4811;DHT22;2419;51.276;6.472;2023-02-16T12:24:45;9.70;99.90
4811;DHT22;2419;51.276;6.472;2023-02-16T12:27:18;9.80;99.90
4811;DHT22;2419;51.276;6.472;2023-02-16T12:29:55;9.90;99.90
4811;DHT22;2419;51.276;6.472;2023-02-16T12:32:41;9.90;99.90
4811;DHT22;2419;51.276;6.472;2023-02-16T12:38:09;10.10;99.90
4811;DHT22;2419;51.276;6.472;2023-02-16T12:40:50;10.00;99.90
4811;DHT22;2419;51.276;6.472;2023-02-16T12:43:31;10.20;99.90
4811;DHT22;2419;51.276;6.472;2023-02-16T12:46:03;10.30;99.90
4811;DHT22;2419;51.276;6.472;2023-02-16T12:48:40;10.30;99.90
4811;DHT22;2419;51.276;6.472;2023-02-16T12:51:16;10.20;99.90
4811;DHT22;2419;51.276;6.472;2023-02-16T12:53:49;10.30;99.90
4811;DHT22;2419;51.276;6.472;2023-02-16T12:56:23;10.30;99.90
4811;DHT22;2419;51.276;6.472;2023-02-16T12:59:02;10.30;99.90
4811;DHT22;2419;51.276;6.472;2023-02-16T13:01:32;10.40;99.90
4811;DHT22;2419;51.276;6.472;2023-02-16T13:04:11;10.40;99.90
4811;DHT22;2419;51.276;6.472;2023-02-16T13:06:47;10.50;99.90
4811;DHT22;2419;51.276;6.472;2023-02-16T13:09:26;10.50;99.90
4811;DHT22;2419;51.276;6.472;2023-02-16T13:12:06;10.70;99.90
4811;DHT22;2419;51.276;6.472;2023-02-16T13:14:39;10.80;99.90
4811;DHT22;2419;51.276;6.472;2023-02-16T13:17:13;10.70;99.90
4811;DHT22;2419;51.276;6.472;2023-02-16T13:19:45;10.60;99.90
4811;DHT22;2419;51.276;6.472;2023-02-16T13:22:37;10.40;99.90
4811;DHT22;2419;51.276;6.472;2023-02-16T13:25:25;10.40;99.90
4811;DHT22;2419;51.276;6.472;2023-02-16T13:28:01;10.20;99.90
4811;DHT22;2419;51.276;6.472;2023-02-16T13:30:39;10.30;99.90
4811;DHT22;2419;51.276;6.472;2023-02-16T13:33:42;10.40;99.90
4811;DHT22;2419;51.276;6.472;2023-02-16T13:36:26;10.40;99.90
4811;DHT22;2419;51.276;6.472;2023-02-16T13:39:35;10.70;99.90
4811;DHT22;2419;51.276;6.472;2023-02-16T13:45:13;11.60;99.90
4811;DHT22;2419;51.276;6.472;2023-02-16T13:47:42;12.00;99.90
4811;DHT22;2419;51.276;6.472;2023-02-16T13:50:24;11.90;99.90
4811;DHT22;2419;51.276;6.472;2023-02-16T13:52:55;12.40;99.90
4811;DHT22;2419;51.276;6.472;2023-02-16T13:55:27;12.10;99.90
4811;DHT22;2419;51.276;6.472;2023-02-16T13:58:02;12.20;99.90
4811;DHT22;2419;51.276;6.472;2023-02-16T14:00:34;12.00;99.90
4811;DHT22;2419;51.276;6.472;2023-02-16T14:03:09;12.00;99.90
4811;DHT22;2419;51.276;6.472;2023-02-16T14:05:40;12.00;99.90
4811;DHT22;2419;51.276;6.472;2023-02-16T14:08:19;12.00;99.90
4811;DHT22;2419;51.276;6.472;2023-02-16T14:11:11;12.20;99.90
4811;DHT22;2419;51.276;6.472;2023-02-16T14:13:47;12.50;99.90
4811;DHT22;2419;51.276;6.472;2023-02-16T14:16:30;12.50;99.90
4811;DHT22;2419;51.276;6.472;2023-02-16T14:19:02;12.10;99.90
4811;DHT22;2419;51.276;6.472;2023-02-16T14:21:35;11.70;99.90
4811;DHT22;2419;51.276;6.472;2023-02-16T14:24:09;11.70;99.90
4811;DHT22;2419;51.276;6.472;2023-02-16T14:26:56;11.80;99.90
4811;DHT22;2419;51.276;6.472;2023-02-16T14:29:30;11.70;99.90
4811;DHT22;2419;51.276;6.472;2023-02-16T14:32:04;11.70;99.90
4811;DHT22;2419;51.276;6.472;2023-02-16T14:34:38;11.80;99.90
4811;DHT22;2419;51.276;6.472;2023-02-16T14:37:28;11.90;99.90
4811;DHT22;2419;51.276;6.472;2023-02-16T14:40:15;11.90;99.90
4811;DHT22;2419;51.276;6.472;2023-02-16T14:42:50;12.10;99.90
4811;DHT22;2419;51.276;6.472;2023-02-16T14:52:12;12.30;99.90
4811;DHT22;2419;51.276;6.472;2023-02-16T14:57:49;12.10;99.90
4811;DHT22;2419;51.276;6.472;2023-02-16T15:00:27;12.10;99.90
4811;DHT22;2419;51.276;6.472;2023-02-16T15:02:58;12.10;99.90
4811;DHT22;2419;51.276;6.472;2023-02-16T15:05:29;12.00;99.90
4811;DHT22;2419;51.276;6.472;2023-02-16T15:08:04;12.00;99.90
4811;DHT22;2419;51.276;6.472;2023-02-16T15:10:38;11.90;99.90
4811;DHT22;2419;51.276;6.472;2023-02-16T15:13:08;12.00;99.90
4811;DHT22;2419;51.276;6.472;2023-02-16T15:15:43;12.10;99.90
4811;DHT22;2419;51.276;6.472;2023-02-16T15:18:14;12.20;99.90
4811;DHT22;2419;51.276;6.472;2023-02-16T15:20:46;12.20;99.90
4811;DHT22;2419;51.276;6.472;2023-02-16T15:23:18;12.20;99.90
4811;DHT22;2419;51.276;6.472;2023-02-16T15:25:56;12.00;99.90
4811;DHT22;2419;51.276;6.472;2023-02-16T15:28:28;12.00;99.90
4811;DHT22;2419;51.276;6.472;2023-02-16T15:30:58;11.90;99.90
4811;DHT22;2419;51.276;6.472;2023-02-16T15:33:33;12.00;99.90
4811;DHT22;2419;51.276;6.472;2023-02-16T15:36:04;12.00;99.90
4811;DHT22;2419;51.276;6.472;2023-02-16T15:38:35;12.00;99.90
4811;DHT22;2419;51.276;6.472;2023-02-16T15:41:06;12.00;99.90
4811;DHT22;2419;51.276;6.472;2023-02-16T15:43:37;11.90;99.90
4811;DHT22;2419;51.276;6.472;2023-02-16T15:46:12;11.80;99.90
4811;DHT22;2419;51.276;6.472;2023-02-16T15:48:41;11.90;99.90
4811;DHT22;2419;51.276;6.472;2023-02-16T15:51:14;11.80;99.90
4811;DHT22;2419;51.276;6.472;2023-02-16T15:53:46;11.80;99.90
4811;DHT22;2419;51.276;6.472;2023-02-16T15:56:32;11.80;99.90
4811;DHT22;2419;51.276;6.472;2023-02-16T15:59:25;11.80;99.90
4811;DHT22;2419;51.276;6.472;2023-02-16T16:01:56;11.80;99.90
4811;DHT22;2419;51.276;6.472;2023-02-16T16:04:26;11.80;99.90
4811;DHT22;2419;51.276;6.472;2023-02-16T16:06:55;11.80;99.90
4811;DHT22;2419;51.276;6.472;2023-02-16T16:09:25;11.80;99.90
4811;DHT22;2419;51.276;6.472;2023-02-16T16:11:56;11.80;99.90
4811;DHT22;2419;51.276;6.472;2023-02-16T16:14:27;11.80;99.90
4811;DHT22;2419;51.276;6.472;2023-02-16T16:16:55;11.80;99.90
4811;DHT22;2419;51.276;6.472;2023-02-16T16:19:31;11.80;99.90
4811;DHT22;2419;51.276;6.472;2023-02-16T16:21:59;11.80;99.90
4811;DHT22;2419;51.276;6.472;2023-02-16T16:24:31;11.70;99.90
4811;DHT22;2419;51.276;6.472;2023-02-16T16:27:03;11.70;99.90
4811;DHT22;2419;51.276;6.472;2023-02-16T16:29:35;11.80;99.90
4811;DHT22;2419;51.276;6.472;2023-02-16T16:32:05;11.80;99.90
4811;DHT22;2419;51.276;6.472;2023-02-16T16:34:36;11.70;99.90
4811;DHT22;2419;51.276;6.472;2023-02-16T16:37:05;11.70;99.90
4811;DHT22;2419;51.276;6.472;2023-02-16T16:39:41;11.70;99.90
4811;DHT22;2419;51.276;6.472;2023-02-16T16:42:20;11.60;99.90
4811;DHT22;2419;51.276;6.472;2023-02-16T16:44:58;11.60;99.90
4811;DHT22;2419;51.276;6.472;2023-02-16T16:47:32;11.60;99.90
4811;DHT22;2419;51.276;6.472;2023-02-16T16:50:04;11.50;99.90
4811;DHT22;2419;51.276;6.472;2023-02-16T16:52:38;11.50;99.90
4811;DHT22;2419;51.276;6.472;2023-02-16T16:55:29;11.50;99.90
4811;DHT22;2419;51.276;6.472;2023-02-16T16:57:59;11.50;99.90
4811;DHT22;2419;51.276;6.472;2023-02-16T17:00:32;11.50;99.90
4811;DHT22;2419;51.276;6.472;2023-02-16T17:03:02;11.50;99.90
4811;DHT22;2419;51.276;6.472;2023-02-16T17:05:31;11.50;99.90
4811;DHT22;2419;51.276;6.472;2023-02-16T17:07:59;11.50;99.90
4811;DHT22;2419;51.276;6.472;2023-02-16T17:10:27;11.50;99.90
4811;DHT22;2419;51.276;6.472;2023-02-16T17:12:57;11.40;99.90
4811;DHT22;2419;51.276;6.472;2023-02-16T17:15:34;11.40;99.90